createdAt,value
2018-05-26T00:00:11.168Z,100727.79
2018-05-26T00:02:40.040Z,100732.83
2018-05-26T00:05:11.205Z,100732.02
2018-05-26T00:07:39.856Z,100737.09
2018-05-26T00:10:12.448Z,100736.34
2018-05-26T00:12:41.416Z,100744.09
2018-05-26T00:15:12.431Z,100744.33
2018-05-26T00:17:41.399Z,100750.64
2018-05-26T00:20:11.833Z,100753.55
2018-05-26T00:22:44.606Z,100761.34
2018-05-26T00:25:13.547Z,100755.52
2018-05-26T00:27:42.091Z,100753.84
2018-05-26T00:30:11.146Z,100753.91
2018-05-26T00:32:40.232Z,100749.06
2018-05-26T00:35:08.821Z,100752.83
2018-05-26T00:37:37.352Z,100744.42
2018-05-26T00:40:10.660Z,100747.39
2018-05-26T00:42:39.186Z,100744.41
2018-05-26T00:45:07.975Z,100743.07
2018-05-26T00:47:36.860Z,100739.53
2018-05-26T00:50:06.789Z,100740.52
2018-05-26T00:52:35.337Z,100734.86
2018-05-26T00:55:05.496Z,100737.59
2018-05-26T00:57:33.997Z,100738.80
2018-05-26T01:01:07.506Z,100735.14
2018-05-26T01:03:36.387Z,100724.75
2018-05-26T01:06:05.676Z,100730.16
2018-05-26T01:08:39.691Z,100724.56
2018-05-26T01:11:09.084Z,100726.81
2018-05-26T01:13:39.349Z,100726.29
2018-05-26T01:16:07.907Z,100723.31
2018-05-26T01:18:38.852Z,100718.70
2018-05-26T01:21:09.285Z,100725.95
2018-05-26T01:23:39.895Z,100725.84
2018-05-26T01:26:08.596Z,100720.77
2018-05-26T01:28:37.581Z,100724.79
2018-05-26T01:31:06.227Z,100721.52
2018-05-26T01:36:08.544Z,100728.39
2018-05-26T01:38:37.506Z,100726.05
2018-05-26T01:41:06.060Z,100727.35
2018-05-26T01:43:35.084Z,100723.44
2018-05-26T01:46:04.507Z,100722.47
2018-05-26T01:48:33.302Z,100729.17
2018-05-26T01:51:05.959Z,100717.38
2018-05-26T01:53:34.630Z,100722.25
2018-05-26T01:56:09.019Z,100719.36
2018-05-26T01:58:38.279Z,100720.38
2018-05-26T02:01:07.225Z,100720.81
2018-05-26T02:03:36.261Z,100715.52
2018-05-26T02:06:06.559Z,100716.59
2018-05-26T02:08:35.245Z,100717.72
2018-05-26T02:11:07.470Z,100721.13
2018-05-26T02:13:36.486Z,100725.43
2018-05-26T02:16:05.991Z,100721.30
2018-05-26T02:18:39.450Z,100728.76
2018-05-26T02:21:08.718Z,100728.31
2018-05-26T02:23:37.368Z,100728.70
2018-05-26T02:26:05.999Z,100730.09
2018-05-26T02:28:40.415Z,100727.57
2018-05-26T02:31:09.442Z,100732.44
2018-05-26T02:33:37.974Z,100735.66
2018-05-26T02:36:07.201Z,100737.36
2018-05-26T02:38:35.891Z,100734.41
2018-05-26T02:41:05.343Z,100736.18
2018-05-26T02:43:35.398Z,100738.27
2018-05-26T02:46:05.140Z,100745.33
2018-05-26T02:48:45.096Z,100733.23
2018-05-26T02:51:14.418Z,100739.28
2018-05-26T02:53:43.036Z,100740.14
2018-05-26T02:56:12.644Z,100743.75
2018-05-26T02:58:41.652Z,100748.58
2018-05-26T03:01:10.454Z,100745.75
2018-05-26T03:03:45.256Z,100746.69
2018-05-26T03:06:19.268Z,100740.91
2018-05-26T03:08:53.216Z,100741.86
2018-05-26T03:11:32.565Z,100747.62
2018-05-26T03:14:06.155Z,100742.63
2018-05-26T03:16:37.253Z,100746.58
2018-05-26T03:19:05.883Z,100749.52
2018-05-26T03:21:34.527Z,100750.30
2018-05-26T03:24:05.993Z,100747.41
2018-05-26T03:26:34.744Z,100749.23
2018-05-26T03:29:03.666Z,100742.76
2018-05-26T03:31:33.733Z,100752.26
2018-05-26T03:36:37.245Z,100758.59
2018-05-26T03:39:06.545Z,100761.95
2018-05-26T03:41:35.240Z,100770.54
2018-05-26T03:44:05.199Z,100767.15
2018-05-26T03:46:34.343Z,100766.92
2018-05-26T03:49:04.124Z,100767.08
2018-05-26T03:51:34.612Z,100766.66
2018-05-26T03:54:03.909Z,100768.13
2018-05-26T03:56:43.388Z,100767.05
2018-05-26T03:59:18.922Z,100768.48
2018-05-26T04:01:47.698Z,100774.45
2018-05-26T04:04:16.341Z,100769.97
2018-05-26T04:06:45.313Z,100771.58
2018-05-26T04:09:19.912Z,100771.49
2018-05-26T04:11:48.954Z,100778.54
2018-05-26T04:14:20.675Z,100781.63
2018-05-26T04:16:49.353Z,100781.16
2018-05-26T04:19:18.507Z,100785.55
2018-05-26T04:21:47.155Z,100785.50
2018-05-26T04:24:16.175Z,100790.08
2018-05-26T04:26:45.625Z,100786.89
2018-05-26T04:29:14.276Z,100786.89
2018-05-26T04:34:22.174Z,100793.05
2018-05-26T04:36:56.748Z,100791.69
2018-05-26T04:39:25.623Z,100797.68
2018-05-26T04:41:54.288Z,100800.06
2018-05-26T04:44:24.962Z,100800.85
2018-05-26T04:46:53.987Z,100797.88
2018-05-26T04:49:22.543Z,100802.91
2018-05-26T04:51:52.743Z,100802.98
2018-05-26T04:54:21.660Z,100801.35
2018-05-26T04:56:50.467Z,100809.92
2018-05-26T04:59:19.198Z,100805.71
2018-05-26T05:01:50.320Z,100807.20
2018-05-26T05:04:19.314Z,100813.87
2018-05-26T05:06:55.253Z,100814.73
2018-05-26T05:09:24.432Z,100808.36
2018-05-26T05:11:56.187Z,100809.18
2018-05-26T05:14:24.884Z,100817.27
2018-05-26T05:16:53.843Z,100824.11
2018-05-26T05:19:22.534Z,100831.56
2018-05-26T05:21:51.231Z,100832.88
2018-05-26T05:24:20.175Z,100833.73
2018-05-26T05:26:48.874Z,100833.42
2018-05-26T05:29:24.377Z,100832.23
2018-05-26T05:31:53.445Z,100833.70
2018-05-26T05:34:21.976Z,100826.31
2018-05-26T05:36:50.757Z,100829.25
2018-05-26T05:39:19.663Z,100827.45
2018-05-26T05:41:49.164Z,100832.63
2018-05-26T05:44:18.650Z,100833.23
2018-05-26T05:46:51.215Z,100826.91
2018-05-26T05:49:20.434Z,100826.00
2018-05-26T05:51:51.086Z,100835.36
2018-05-26T05:54:21.039Z,100844.64
2018-05-26T05:56:50.147Z,100846.77
2018-05-26T05:59:19.091Z,100853.09
2018-05-26T06:01:48.350Z,100850.78
2018-05-26T06:04:17.141Z,100853.80
2018-05-26T06:06:45.791Z,100854.37
2018-05-26T06:09:21.596Z,100858.39
2018-05-26T06:11:50.412Z,100851.36
2018-05-26T06:14:19.839Z,100858.84
2018-05-26T06:16:49.346Z,100855.84
2018-05-26T06:19:18.734Z,100850.97
2018-05-26T06:21:47.392Z,100853.52
2018-05-26T06:24:18.237Z,100858.03
2018-05-26T06:26:47.214Z,100852.47
2018-05-26T06:29:16.312Z,100852.11
2018-05-26T06:31:45.369Z,100847.53
2018-05-26T06:34:14.198Z,100846.62
2018-05-26T06:36:48.075Z,100841.88
2018-05-26T06:39:18.359Z,100844.98
2018-05-26T06:41:47.271Z,100844.13
2018-05-26T06:44:16.853Z,100851.06
2018-05-26T06:46:46.255Z,100847.31
2018-05-26T06:52:18.774Z,100855.55
2018-05-26T06:54:48.092Z,100865.71
2018-05-26T06:57:16.781Z,100859.83
2018-05-26T06:59:46.669Z,100855.75
2018-05-26T07:02:15.716Z,100855.48
2018-05-26T07:04:44.578Z,100847.18
2018-05-26T07:07:14.333Z,100848.92
2018-05-26T07:09:44.500Z,100848.59
2018-05-26T07:12:14.025Z,100849.38
2018-05-26T07:14:43.705Z,100845.02
2018-05-26T07:17:12.410Z,100839.71
2018-05-26T07:19:41.321Z,100844.89
2018-05-26T07:22:10.811Z,100843.95
2018-05-26T07:24:45.216Z,100845.02
2018-05-26T07:27:13.983Z,100843.73
2018-05-26T07:29:42.716Z,100846.13
2018-05-26T07:32:11.285Z,100852.28
2018-05-26T07:34:40.344Z,100851.76
2018-05-26T07:37:09.007Z,100845.81
2018-05-26T07:39:37.631Z,100841.83
2018-05-26T07:42:06.779Z,100849.35
2018-05-26T07:44:35.377Z,100854.06
2018-05-26T07:47:05.277Z,100855.62
2018-05-26T07:49:34.320Z,100856.45
2018-05-26T07:52:06.266Z,100857.94
2018-05-26T07:54:34.850Z,100856.40
2018-05-26T07:57:03.952Z,100862.59
2018-05-26T07:59:32.547Z,100868.41
2018-05-26T08:02:03.127Z,100870.77
2018-05-26T08:04:31.863Z,100875.25
2018-05-26T08:07:00.469Z,100875.02
2018-05-26T08:09:29.176Z,100869.20
2018-05-26T08:12:00.185Z,100876.59
2018-05-26T08:14:28.865Z,100877.08
2018-05-26T08:16:57.753Z,100875.58
2018-05-26T08:19:27.045Z,100878.52
2018-05-26T08:21:55.606Z,100880.48
2018-05-26T08:24:29.888Z,100881.11
2018-05-26T08:26:58.472Z,100886.83
2018-05-26T08:29:27.039Z,100890.05
2018-05-26T08:31:57.976Z,100888.86
2018-05-26T08:34:26.544Z,100894.95
2018-05-26T08:36:56.136Z,100896.98
2018-05-26T08:39:25.038Z,100894.59
2018-05-26T08:41:56.994Z,100897.49
2018-05-26T08:44:25.546Z,100890.13
2018-05-26T08:46:55.279Z,100890.13
2018-05-26T08:49:23.795Z,100892.00
2018-05-26T08:51:53.727Z,100888.60
2018-05-26T08:54:22.646Z,100881.48
2018-05-26T08:56:51.366Z,100882.00
2018-05-26T08:59:20.473Z,100883.55
2018-05-26T09:04:46.427Z,100875.96
2018-05-26T09:07:15.351Z,100876.02
2018-05-26T09:09:45.946Z,100876.44
2018-05-26T09:12:14.493Z,100874.95
2018-05-26T09:14:50.076Z,100872.90
2018-05-26T09:17:18.607Z,100868.63
2018-05-26T09:19:47.319Z,100869.94
2018-05-26T09:22:16.058Z,100869.04
2018-05-26T09:24:44.771Z,100869.27
2018-05-26T09:27:13.931Z,100874.84
2018-05-26T09:29:42.524Z,100870.13
2018-05-26T09:45:16.747Z,100872.88
2018-05-26T09:47:45.377Z,100869.75
2018-05-26T09:50:14.439Z,100869.34
2018-05-26T09:52:43.063Z,100868.91
2018-05-26T09:55:11.636Z,100867.91
2018-05-26T09:57:41.119Z,100872.85
2018-05-26T10:00:09.893Z,100875.88
2018-05-26T10:02:38.436Z,100870.07
2018-05-26T10:05:08.351Z,100880.44
2018-05-26T10:07:36.895Z,100869.32
2018-05-26T10:10:08.815Z,100872.72
2018-05-26T10:12:39.831Z,100872.31
2018-05-26T10:15:08.395Z,100866.23
2018-05-26T10:17:36.956Z,100869.55
2018-05-26T10:20:09.321Z,100869.67
2018-05-26T10:22:43.892Z,100877.23
2018-05-26T10:25:12.956Z,100879.23
2018-05-26T10:27:41.565Z,100867.00
2018-05-26T10:30:10.210Z,100872.34
2018-05-26T10:32:43.635Z,100865.19
2018-05-26T10:35:12.335Z,100863.86
2018-05-26T10:37:41.575Z,100858.02
2018-05-26T10:40:11.995Z,100854.02
2018-05-26T10:42:41.090Z,100852.28
2018-05-26T10:45:09.751Z,100855.13
2018-05-26T10:47:38.673Z,100861.19
2018-05-26T10:50:07.261Z,100853.16
2018-05-26T10:52:41.509Z,100854.04
2018-05-26T10:55:10.095Z,100853.56
2018-05-26T10:57:39.731Z,100861.18
2018-05-26T11:00:08.678Z,100848.72
2018-05-26T11:02:37.410Z,100856.74
2018-05-26T11:05:06.012Z,100858.50
2018-05-26T11:07:35.108Z,100856.20
2018-05-26T11:10:06.066Z,100850.20
2018-05-26T11:12:35.060Z,100854.97
2018-05-26T11:15:04.208Z,100854.45
2018-05-26T11:17:32.859Z,100853.05
2018-05-26T11:20:02.679Z,100857.32
2018-05-26T11:22:32.002Z,100859.02
2018-05-26T11:25:01.163Z,100852.86
2018-05-26T11:27:29.831Z,100853.40
2018-05-26T11:29:58.950Z,100855.84
2018-05-26T11:32:27.535Z,100858.11
2018-05-26T11:34:57.019Z,100858.26
2018-05-26T11:37:25.920Z,100859.84
2018-05-26T11:39:55.010Z,100855.38
2018-05-26T11:42:23.546Z,100849.55
2018-05-26T11:44:53.621Z,100848.19
2018-05-26T11:47:22.334Z,100848.83
2018-05-26T11:49:55.862Z,100843.84
2018-05-26T11:52:24.688Z,100843.80
2018-05-26T11:54:53.438Z,100845.50
2018-05-26T11:57:21.978Z,100850.92
2018-05-26T11:59:50.956Z,100848.58
2018-05-26T12:02:19.477Z,100855.03
2018-05-26T12:04:48.978Z,100857.21
2018-05-26T12:07:17.800Z,100856.17
2018-05-26T12:09:46.443Z,100858.91
2018-05-26T12:12:15.860Z,100858.06
2018-05-26T12:14:44.413Z,100863.29
2018-05-26T12:17:17.895Z,100848.89
2018-05-26T12:32:37.971Z,100839.08
2018-05-26T12:35:06.486Z,100843.11
2018-05-26T12:37:35.392Z,100841.03
2018-05-26T12:40:05.752Z,100839.09
2018-05-26T12:42:34.499Z,100835.42
2018-05-26T12:45:03.844Z,100827.45
2018-05-26T12:47:37.042Z,100829.09
2018-05-26T12:50:06.582Z,100828.59
2018-05-26T12:52:35.093Z,100830.13
2018-05-26T12:55:04.598Z,100826.96
2018-05-26T12:57:33.686Z,100828.42
2018-05-26T13:00:03.823Z,100827.52
2018-05-26T13:02:32.352Z,100827.50
2018-05-26T13:05:01.545Z,100821.64
2018-05-26T13:07:32.887Z,100822.45
2018-05-26T13:10:01.819Z,100821.58
2018-05-26T13:12:30.815Z,100823.37
2018-05-26T13:14:59.823Z,100816.55
2018-05-26T13:17:29.107Z,100817.96
2018-05-26T13:19:58.145Z,100810.56
2018-05-26T13:22:26.792Z,100808.18
2018-05-26T13:24:56.162Z,100807.36
2018-05-26T13:27:29.446Z,100803.53
2018-05-26T13:29:58.070Z,100795.66
2018-05-26T13:32:26.662Z,100796.99
2018-05-26T13:34:55.579Z,100793.77
2018-05-26T13:37:28.084Z,100793.33
2018-05-26T13:39:57.927Z,100792.25
2018-05-26T13:42:26.984Z,100785.48
2018-05-26T13:44:55.660Z,100783.13
2018-05-26T13:47:24.309Z,100792.00
2018-05-26T13:49:53.678Z,100779.14
2018-05-26T13:52:23.754Z,100775.64
2018-05-26T13:54:52.612Z,100777.34
2018-05-26T13:57:23.748Z,100782.13
2018-05-26T13:59:52.804Z,100777.57
2018-05-26T14:02:24.164Z,100776.94
2018-05-26T14:04:54.994Z,100774.66
2018-05-26T14:07:24.021Z,100772.45
2018-05-26T14:09:54.783Z,100775.19
2018-05-26T14:12:24.867Z,100769.52
2018-05-26T14:14:53.671Z,100774.36
2018-05-26T14:17:22.300Z,100774.76
2018-05-26T14:19:53.610Z,100781.81
2018-05-26T14:22:23.733Z,100780.80
2018-05-26T14:24:52.712Z,100780.73
2018-05-26T14:27:23.158Z,100783.92
2018-05-26T14:29:52.716Z,100779.96
2018-05-26T14:32:21.331Z,100778.58
2018-05-26T14:34:55.174Z,100777.42
2018-05-26T14:37:24.231Z,100774.09
2018-05-26T14:39:53.120Z,100769.00
2018-05-26T14:42:22.856Z,100774.63
2018-05-26T14:47:31.111Z,100771.09
2018-05-26T14:50:10.639Z,100769.73
2018-05-26T14:52:39.614Z,100768.72
2018-05-26T14:55:11.288Z,100765.95
2018-05-26T14:57:39.848Z,100763.16
2018-05-26T15:00:08.806Z,100767.47
2018-05-26T15:02:37.698Z,100765.50
2018-05-26T15:05:06.287Z,100767.92
2018-05-26T15:07:35.409Z,100769.22
2018-05-26T15:10:05.156Z,100765.22
2018-05-26T15:12:39.037Z,100767.09
2018-05-26T15:15:08.549Z,100760.73
2018-05-26T15:17:37.084Z,100765.58
2018-05-26T15:20:06.255Z,100762.02
2018-05-26T15:22:35.815Z,100756.22
2018-05-26T15:25:06.650Z,100754.14
2018-05-26T15:27:35.328Z,100755.84
2018-05-26T15:30:06.523Z,100757.77
2018-05-26T15:32:35.111Z,100756.66
2018-05-26T15:35:03.976Z,100760.07
2018-05-26T15:37:34.649Z,100758.86
2018-05-26T15:40:06.771Z,100761.62
2018-05-26T15:42:35.755Z,100760.80
2018-05-26T15:45:06.940Z,100764.72
2018-05-26T15:47:36.230Z,100765.91
2018-05-26T15:50:11.071Z,100759.65
2018-05-26T15:52:40.538Z,100762.02
2018-05-26T15:55:09.376Z,100758.09
2018-05-26T15:57:38.586Z,100757.77
2018-05-26T16:00:07.532Z,100761.45
2018-05-26T16:02:36.214Z,100758.92
2018-05-26T16:05:06.348Z,100760.30
2018-05-26T16:07:35.073Z,100752.61
2018-05-26T16:10:07.403Z,100751.68
2018-05-26T16:12:36.352Z,100750.24
2018-05-26T16:15:05.884Z,100750.05
2018-05-26T16:17:34.433Z,100745.80
2018-05-26T16:20:04.861Z,100744.45
2018-05-26T16:22:34.818Z,100738.64
2018-05-26T16:25:04.212Z,100737.78
2018-05-26T16:27:32.775Z,100742.19
2018-05-26T16:30:04.231Z,100740.73
2018-05-26T16:32:32.790Z,100740.71
2018-05-26T16:35:02.759Z,100742.78
2018-05-26T16:37:36.377Z,100744.74
2018-05-26T16:40:05.800Z,100743.78
2018-05-26T16:42:34.405Z,100746.72
2018-05-26T16:45:03.261Z,100742.98
2018-05-26T16:47:31.875Z,100738.65
2018-05-26T16:50:00.764Z,100736.84
2018-05-26T16:52:29.691Z,100738.47
2018-05-26T16:54:58.307Z,100736.20
2018-05-26T16:57:27.338Z,100737.36
2018-05-26T16:59:56.318Z,100735.29
2018-05-26T17:02:24.911Z,100736.70
2018-05-26T17:07:27.015Z,100742.33
2018-05-26T17:09:55.907Z,100729.34
2018-05-26T17:12:24.708Z,100734.99
2018-05-26T17:14:54.586Z,100722.22
2018-05-26T17:17:23.195Z,100721.42
2018-05-26T17:19:51.849Z,100722.48
2018-05-26T17:22:20.946Z,100723.52
2018-05-26T17:24:49.545Z,100722.66
2018-05-26T17:27:18.128Z,100725.33
2018-05-26T17:29:47.166Z,100724.31
2018-05-26T17:32:15.922Z,100728.70
2018-05-26T17:34:44.959Z,100727.67
2018-05-26T17:37:13.991Z,100731.87
2018-05-26T17:39:42.672Z,100727.98
2018-05-26T17:42:11.570Z,100736.30
2018-05-26T17:44:40.514Z,100738.68
2018-05-26T17:47:11.673Z,100741.61
2018-05-26T17:49:40.309Z,100742.89
2018-05-26T17:52:09.643Z,100744.24
2018-05-26T17:54:38.409Z,100741.92
2018-05-26T17:59:40.516Z,100739.05
2018-05-26T18:02:09.589Z,100742.17
2018-05-26T18:04:38.288Z,100747.50
2018-05-26T18:07:12.886Z,100752.18
2018-05-26T18:09:41.397Z,100749.84
2018-05-26T18:12:10.042Z,100753.06
2018-05-26T18:14:38.927Z,100752.34
2018-05-26T18:17:07.975Z,100751.80
2018-05-26T18:19:47.398Z,100751.80
2018-05-26T18:22:16.257Z,100760.98
2018-05-26T18:24:45.611Z,100765.33
2018-05-26T18:27:14.316Z,100767.67
2018-05-26T18:29:43.371Z,100770.05
2018-05-26T18:32:12.690Z,100769.77
2018-05-26T18:34:45.098Z,100771.17
2018-05-26T18:37:14.002Z,100777.15
2018-05-26T18:39:42.966Z,100774.08
2018-05-26T18:42:11.505Z,100776.62
2018-05-26T18:44:40.702Z,100780.38
2018-05-26T18:47:10.019Z,100779.39
2018-05-26T18:49:38.567Z,100781.70
2018-05-26T18:52:07.489Z,100790.98
2018-05-26T18:54:36.060Z,100786.73
2018-05-26T18:57:04.948Z,100785.52
2018-05-26T18:59:34.035Z,100789.14
2018-05-26T19:04:45.413Z,100785.05
2018-05-26T19:07:14.531Z,100788.73
2018-05-26T19:09:43.179Z,100787.44
2018-05-26T19:12:14.000Z,100794.77
2018-05-26T19:14:42.686Z,100794.69
2018-05-26T19:17:11.316Z,100796.39
2018-05-26T19:19:40.187Z,100797.80
2018-05-26T19:22:10.411Z,100798.42
2018-05-26T19:24:38.994Z,100799.32
2018-05-26T19:27:08.562Z,100806.53
2018-05-26T19:29:39.562Z,100806.24
2018-05-26T19:32:08.431Z,100806.19
2018-05-26T19:34:37.727Z,100805.00
2018-05-26T19:37:07.047Z,100806.52
2018-05-26T19:39:35.655Z,100802.52
2018-05-26T19:42:06.451Z,100808.59
2018-05-26T19:44:35.074Z,100810.53
2018-05-26T19:47:07.179Z,100809.48
2018-05-26T19:49:37.444Z,100810.00
2018-05-26T19:52:09.695Z,100814.80
2018-05-26T19:57:14.297Z,100823.09
2018-05-26T19:59:42.869Z,100830.13
2018-05-26T20:02:11.436Z,100832.83
2018-05-26T20:04:51.783Z,100839.58
2018-05-26T20:07:20.485Z,100830.02
2018-05-26T20:09:49.067Z,100834.34
2018-05-26T20:12:20.293Z,100841.30
2018-05-26T20:14:49.597Z,100846.13
2018-05-26T20:17:18.519Z,100848.83
2018-05-26T20:22:27.363Z,100847.00
2018-05-26T20:24:56.028Z,100851.70
2018-05-26T20:27:24.583Z,100854.14
2018-05-26T20:29:54.675Z,100853.02
2018-05-26T20:32:23.331Z,100859.61
2018-05-26T20:34:52.088Z,100857.18
2018-05-26T20:37:21.250Z,100862.96
2018-05-26T20:39:54.314Z,100860.30
2018-05-26T20:42:23.173Z,100865.70
2018-05-26T20:44:52.795Z,100867.23
2018-05-26T20:47:21.643Z,100862.53
2018-05-26T20:49:50.369Z,100857.09
2018-05-26T20:52:19.836Z,100859.63
2018-05-26T20:54:49.772Z,100856.27
2018-05-26T20:57:18.476Z,100849.20
2018-05-26T20:59:53.845Z,100843.33
2018-05-26T21:02:22.418Z,100837.04
2018-05-26T21:04:53.038Z,100832.25
2018-05-26T21:07:21.572Z,100830.85
2018-05-26T21:09:50.107Z,100832.23
2018-05-26T21:12:18.996Z,100827.09
2018-05-26T21:14:47.544Z,100833.37
2018-05-26T21:17:16.094Z,100833.36
2018-05-26T21:19:44.667Z,100834.42
2018-05-26T21:22:14.972Z,100833.84
2018-05-26T21:24:43.932Z,100826.55
2018-05-26T21:27:12.675Z,100829.74
2018-05-26T21:29:41.219Z,100818.16
2018-05-26T21:32:10.379Z,100814.41
2018-05-26T21:34:38.906Z,100810.31
2018-05-26T21:37:07.830Z,100811.84
2018-05-26T21:39:37.056Z,100811.23
2018-05-26T21:42:05.907Z,100818.32
2018-05-26T21:44:34.688Z,100813.86
2018-05-26T21:47:07.361Z,100814.36
2018-05-26T21:49:36.179Z,100809.13
2018-05-26T21:52:08.556Z,100806.59
2018-05-26T21:54:37.079Z,100805.23
2018-05-26T21:57:05.641Z,100807.27
2018-05-26T21:59:34.543Z,100812.69
2018-05-26T22:02:07.571Z,100808.64
2018-05-26T22:04:36.158Z,100805.55
2018-05-26T22:07:05.863Z,100814.27
2018-05-26T22:09:34.401Z,100815.45
2018-05-26T22:12:04.239Z,100822.70
2018-05-26T22:14:33.755Z,100817.44
2018-05-26T22:17:03.581Z,100811.54
2018-05-26T22:19:32.176Z,100815.58
2018-05-26T22:22:00.755Z,100813.25
2018-05-26T22:24:30.806Z,100813.59
2018-05-26T22:27:00.296Z,100821.61
2018-05-26T22:29:28.850Z,100816.06
2018-05-26T22:31:58.113Z,100819.87
2018-05-26T22:34:26.684Z,100811.94
2018-05-26T22:36:55.323Z,100824.00
2018-05-26T22:39:24.292Z,100825.86
2018-05-26T22:41:53.051Z,100829.20
2018-05-26T22:44:22.157Z,100831.48
2018-05-26T22:46:51.276Z,100829.66
2018-05-26T22:49:24.790Z,100831.86
2018-05-26T22:51:53.593Z,100827.55
2018-05-26T22:54:22.262Z,100826.20
2018-05-26T22:56:51.154Z,100828.16
2018-05-26T22:59:20.276Z,100836.92
2018-05-26T23:01:48.777Z,100835.23
2018-05-26T23:04:17.364Z,100836.50
2018-05-26T23:06:56.785Z,100829.84
2018-05-26T23:09:25.424Z,100826.48
2018-05-26T23:11:59.944Z,100823.91
2018-05-26T23:14:28.529Z,100830.70
2018-05-26T23:16:57.341Z,100826.49
2018-05-26T23:19:26.148Z,100816.22
2018-05-26T23:21:56.899Z,100815.55
2018-05-26T23:24:26.675Z,100808.83
2018-05-26T23:26:55.554Z,100801.02
2018-05-26T23:29:28.897Z,100792.62
2018-05-26T23:31:58.583Z,100793.13
2018-05-26T23:34:27.201Z,100786.72
2018-05-26T23:36:57.151Z,100783.25
2018-05-26T23:39:26.245Z,100785.77
2018-05-26T23:41:56.796Z,100780.38
2018-05-26T23:44:25.400Z,100776.17
2018-05-26T23:46:54.514Z,100770.54
2018-05-26T23:49:27.282Z,100768.03
2018-05-26T23:51:56.776Z,100763.08
2018-05-26T23:54:25.475Z,100749.09
2018-05-26T23:59:34.189Z,100752.72
